Hlavní strana
METAR-TAF:

METAR-TAF

Letiště :

Schwäbisch Hall, Německo

zeměpisná šířka: 49-07-06N, zeměpisná délka: 9-47-02E, výška: 398 m

Aktuální stav počasí

Zpráva byla vytvořena před 10 hodinami a 15 minutami, v 18:50 UTC
Východoseverovýchodní vítr 3 kt
Teplota 22°C
Vlhkost vzduchu 60%
Tlak 1020 hPa
Viditelnost 10 km a více
Žádná oblačnost pod 1500 m, nevyskytují se cumulonimby.

METAR: EDTY 261850Z 07003KT CAVOK 22/14 Q1020

Čas: 07:05 (05:05 UTC)


TAF: chybějící

Stav a předpovědi počasí z více než 4 000 letišť (zprávy METAR a TAF).

Červené a žluté tečky na mapě představují dostupné meteorologické stanice.

Když kurzor umístíte na tečku, zobrazí se název stanice.

Pak kliknutím zobrazíte stav a předpověď počasí.

Chcete-li změnit mapu, kliknutím na zelené tlačítko se znaménkem +mapu přiblížíte, kliknutím na zelené tlačítko se znaménkem – mapu oddálíte a kliknutím na zelené šipky přejdete na sousední mapy.


METAR-TAF: